sensor_id;sensor_type;location;lat;lon;timestamp;temperature;humidity
8261;DHT22;64115;50.170;8.242;2023-04-06T00:01:13;2.90;88.20
8261;DHT22;64115;50.170;8.242;2023-04-06T00:03:40;2.90;89.30
8261;DHT22;64115;50.170;8.242;2023-04-06T00:06:07;3.00;88.30
8261;DHT22;64115;50.170;8.242;2023-04-06T00:08:34;2.90;89.30
8261;DHT22;64115;50.170;8.242;2023-04-06T00:11:01;2.90;88.80
8261;DHT22;64115;50.170;8.242;2023-04-06T00:13:28;2.80;88.90
8261;DHT22;64115;50.170;8.242;2023-04-06T00:15:55;2.80;90.10
8261;DHT22;64115;50.170;8.242;2023-04-06T00:18:24;2.80;89.60
8261;DHT22;64115;50.170;8.242;2023-04-06T00:20:52;2.80;89.50
8261;DHT22;64115;50.170;8.242;2023-04-06T00:23:19;2.70;90.00
8261;DHT22;64115;50.170;8.242;2023-04-06T00:25:46;2.70;90.10
8261;DHT22;64115;50.170;8.242;2023-04-06T00:28:13;2.70;90.20
8261;DHT22;64115;50.170;8.242;2023-04-06T00:30:40;2.80;90.20
8261;DHT22;64115;50.170;8.242;2023-04-06T00:33:07;2.80;90.60
8261;DHT22;64115;50.170;8.242;2023-04-06T00:35:36;2.70;90.90
8261;DHT22;64115;50.170;8.242;2023-04-06T00:38:04;2.60;90.90
8261;DHT22;64115;50.170;8.242;2023-04-06T00:40:31;2.60;90.70
8261;DHT22;64115;50.170;8.242;2023-04-06T00:43:00;2.50;90.90
8261;DHT22;64115;50.170;8.242;2023-04-06T00:45:27;2.50;91.40
8261;DHT22;64115;50.170;8.242;2023-04-06T00:47:54;2.50;91.10
8261;DHT22;64115;50.170;8.242;2023-04-06T00:50:23;2.50;91.10
8261;DHT22;64115;50.170;8.242;2023-04-06T00:52:52;2.50;91.40
8261;DHT22;64115;50.170;8.242;2023-04-06T00:55:20;2.50;91.30
8261;DHT22;64115;50.170;8.242;2023-04-06T00:57:48;2.50;91.30
8261;DHT22;64115;50.170;8.242;2023-04-06T01:00:16;2.50;91.20
8261;DHT22;64115;50.170;8.242;2023-04-06T01:02:43;2.50;91.10
8261;DHT22;64115;50.170;8.242;2023-04-06T01:05:11;2.60;91.40
8261;DHT22;64115;50.170;8.242;2023-04-06T01:07:38;2.60;91.00
8261;DHT22;64115;50.170;8.242;2023-04-06T01:10:08;2.60;91.10
8261;DHT22;64115;50.170;8.242;2023-04-06T01:12:35;2.70;90.90
8261;DHT22;64115;50.170;8.242;2023-04-06T01:15:03;2.60;91.30
8261;DHT22;64115;50.170;8.242;2023-04-06T01:17:31;2.70;91.00
8261;DHT22;64115;50.170;8.242;2023-04-06T01:19:58;2.60;90.80
8261;DHT22;64115;50.170;8.242;2023-04-06T01:22:27;2.60;90.90
8261;DHT22;64115;50.170;8.242;2023-04-06T01:24:54;2.60;90.70
8261;DHT22;64115;50.170;8.242;2023-04-06T01:27:22;2.50;90.90
8261;DHT22;64115;50.170;8.242;2023-04-06T01:29:51;2.50;90.60
8261;DHT22;64115;50.170;8.242;2023-04-06T01:32:18;2.60;90.60
8261;DHT22;64115;50.170;8.242;2023-04-06T01:34:45;2.60;90.80
8261;DHT22;64115;50.170;8.242;2023-04-06T01:37:12;2.60;90.90
8261;DHT22;64115;50.170;8.242;2023-04-06T01:39:42;2.50;90.90
8261;DHT22;64115;50.170;8.242;2023-04-06T01:42:09;2.50;91.10
8261;DHT22;64115;50.170;8.242;2023-04-06T01:44:36;2.40;91.10
8261;DHT22;64115;50.170;8.242;2023-04-06T01:47:03;2.30;91.40
8261;DHT22;64115;50.170;8.242;2023-04-06T01:49:30;2.20;91.40
8261;DHT22;64115;50.170;8.242;2023-04-06T01:51:57;2.20;91.10
8261;DHT22;64115;50.170;8.242;2023-04-06T01:54:25;2.20;91.20
8261;DHT22;64115;50.170;8.242;2023-04-06T01:56:53;2.30;91.00
8261;DHT22;64115;50.170;8.242;2023-04-06T01:59:20;2.30;91.00
8261;DHT22;64115;50.170;8.242;2023-04-06T02:01:47;2.40;90.90
8261;DHT22;64115;50.170;8.242;2023-04-06T02:04:15;2.30;91.00
8261;DHT22;64115;50.170;8.242;2023-04-06T02:06:42;2.40;91.20
8261;DHT22;64115;50.170;8.242;2023-04-06T02:09:09;2.40;90.60
8261;DHT22;64115;50.170;8.242;2023-04-06T02:11:36;2.50;90.20
8261;DHT22;64115;50.170;8.242;2023-04-06T02:14:04;2.50;90.10
8261;DHT22;64115;50.170;8.242;2023-04-06T02:16:32;2.50;90.40
8261;DHT22;64115;50.170;8.242;2023-04-06T02:18:59;2.50;90.40
8261;DHT22;64115;50.170;8.242;2023-04-06T02:21:26;2.40;90.50
8261;DHT22;64115;50.170;8.242;2023-04-06T02:23:53;2.40;90.60
8261;DHT22;64115;50.170;8.242;2023-04-06T02:26:20;2.40;90.30
8261;DHT22;64115;50.170;8.242;2023-04-06T02:28:47;2.40;90.30
8261;DHT22;64115;50.170;8.242;2023-04-06T02:31:16;2.40;90.10
8261;DHT22;64115;50.170;8.242;2023-04-06T02:33:44;2.40;90.00
8261;DHT22;64115;50.170;8.242;2023-04-06T02:36:10;2.50;89.80
8261;DHT22;64115;50.170;8.242;2023-04-06T02:38:37;2.40;89.90
8261;DHT22;64115;50.170;8.242;2023-04-06T02:41:04;2.40;89.60
8261;DHT22;64115;50.170;8.242;2023-04-06T02:43:32;2.60;88.90
8261;DHT22;64115;50.170;8.242;2023-04-06T02:46:00;2.60;89.80
8261;DHT22;64115;50.170;8.242;2023-04-06T02:48:29;2.60;88.70
8261;DHT22;64115;50.170;8.242;2023-04-06T02:50:56;2.60;89.00
8261;DHT22;64115;50.170;8.242;2023-04-06T02:53:23;2.60;88.90
8261;DHT22;64115;50.170;8.242;2023-04-06T02:55:50;2.60;88.20
8261;DHT22;64115;50.170;8.242;2023-04-06T02:58:17;2.50;89.80
8261;DHT22;64115;50.170;8.242;2023-04-06T03:00:45;2.50;89.70
8261;DHT22;64115;50.170;8.242;2023-04-06T03:03:12;2.40;90.00
8261;DHT22;64115;50.170;8.242;2023-04-06T03:05:40;2.40;89.40
8261;DHT22;64115;50.170;8.242;2023-04-06T03:08:07;2.50;89.60
8261;DHT22;64115;50.170;8.242;2023-04-06T03:10:34;2.40;89.40
8261;DHT22;64115;50.170;8.242;2023-04-06T03:13:02;2.40;90.00
8261;DHT22;64115;50.170;8.242;2023-04-06T03:15:29;2.40;90.00
8261;DHT22;64115;50.170;8.242;2023-04-06T03:17:57;2.50;89.30
8261;DHT22;64115;50.170;8.242;2023-04-06T03:20:24;2.50;88.80
8261;DHT22;64115;50.170;8.242;2023-04-06T03:22:53;2.60;88.70
8261;DHT22;64115;50.170;8.242;2023-04-06T03:25:20;2.60;88.20
8261;DHT22;64115;50.170;8.242;2023-04-06T03:27:47;2.50;89.10
8261;DHT22;64115;50.170;8.242;2023-04-06T03:30:14;2.50;88.50
8261;DHT22;64115;50.170;8.242;2023-04-06T03:32:43;2.50;89.50
8261;DHT22;64115;50.170;8.242;2023-04-06T03:35:10;2.50;89.10
8261;DHT22;64115;50.170;8.242;2023-04-06T03:37:37;2.50;89.30
8261;DHT22;64115;50.170;8.242;2023-04-06T03:40:07;2.50;89.20
8261;DHT22;64115;50.170;8.242;2023-04-06T03:42:34;2.50;89.30
8261;DHT22;64115;50.170;8.242;2023-04-06T03:45:01;2.40;89.40
8261;DHT22;64115;50.170;8.242;2023-04-06T03:47:29;2.40;89.50
8261;DHT22;64115;50.170;8.242;2023-04-06T03:49:56;2.50;89.10
8261;DHT22;64115;50.170;8.242;2023-04-06T03:52:23;2.50;89.20
8261;DHT22;64115;50.170;8.242;2023-04-06T03:54:50;2.50;89.10
8261;DHT22;64115;50.170;8.242;2023-04-06T03:57:19;2.50;89.00
8261;DHT22;64115;50.170;8.242;2023-04-06T03:59:46;2.50;88.90
8261;DHT22;64115;50.170;8.242;2023-04-06T04:02:13;2.50;88.40
8261;DHT22;64115;50.170;8.242;2023-04-06T04:04:41;2.60;88.50
8261;DHT22;64115;50.170;8.242;2023-04-06T04:07:08;2.60;88.20
8261;DHT22;64115;50.170;8.242;2023-04-06T04:09:36;2.60;88.30
8261;DHT22;64115;50.170;8.242;2023-04-06T04:12:03;2.50;88.50
8261;DHT22;64115;50.170;8.242;2023-04-06T04:14:32;2.40;89.10
8261;DHT22;64115;50.170;8.242;2023-04-06T04:16:59;2.40;88.10
8261;DHT22;64115;50.170;8.242;2023-04-06T04:19:26;2.40;88.70
8261;DHT22;64115;50.170;8.242;2023-04-06T04:21:54;2.40;89.10
8261;DHT22;64115;50.170;8.242;2023-04-06T04:24:21;2.40;89.60
8261;DHT22;64115;50.170;8.242;2023-04-06T04:26:48;2.40;89.10
8261;DHT22;64115;50.170;8.242;2023-04-06T04:29:15;2.40;89.10
8261;DHT22;64115;50.170;8.242;2023-04-06T04:31:43;2.50;89.60
8261;DHT22;64115;50.170;8.242;2023-04-06T04:34:11;2.50;90.00
8261;DHT22;64115;50.170;8.242;2023-04-06T04:36:38;2.40;89.90
8261;DHT22;64115;50.170;8.242;2023-04-06T04:39:07;2.40;89.20
8261;DHT22;64115;50.170;8.242;2023-04-06T04:41:34;2.40;89.80
8261;DHT22;64115;50.170;8.242;2023-04-06T04:44:01;2.50;89.30
8261;DHT22;64115;50.170;8.242;2023-04-06T04:46:28;2.40;89.90
8261;DHT22;64115;50.170;8.242;2023-04-06T04:48:57;2.40;89.40
8261;DHT22;64115;50.170;8.242;2023-04-06T04:51:24;2.40;89.40
8261;DHT22;64115;50.170;8.242;2023-04-06T04:53:51;2.30;89.90
8261;DHT22;64115;50.170;8.242;2023-04-06T04:56:18;2.30;90.10
8261;DHT22;64115;50.170;8.242;2023-04-06T04:58:45;2.10;90.30
8261;DHT22;64115;50.170;8.242;2023-04-06T05:01:12;2.20;90.10
8261;DHT22;64115;50.170;8.242;2023-04-06T05:03:40;2.20;90.50
8261;DHT22;64115;50.170;8.242;2023-04-06T05:06:08;2.00;90.90
8261;DHT22;64115;50.170;8.242;2023-04-06T05:08:36;2.10;90.90
8261;DHT22;64115;50.170;8.242;2023-04-06T05:11:04;2.20;90.60
8261;DHT22;64115;50.170;8.242;2023-04-06T05:13:31;2.30;90.70
8261;DHT22;64115;50.170;8.242;2023-04-06T05:15:58;2.30;91.00
8261;DHT22;64115;50.170;8.242;2023-04-06T05:18:25;2.40;90.90
8261;DHT22;64115;50.170;8.242;2023-04-06T05:20:53;2.40;91.50
8261;DHT22;64115;50.170;8.242;2023-04-06T05:23:21;2.50;91.40
8261;DHT22;64115;50.170;8.242;2023-04-06T05:25:48;2.60;91.40
8261;DHT22;64115;50.170;8.242;2023-04-06T05:28:16;2.70;91.40
8261;DHT22;64115;50.170;8.242;2023-04-06T05:30:44;2.80;91.40
8261;DHT22;64115;50.170;8.242;2023-04-06T05:33:12;2.80;91.20
8261;DHT22;64115;50.170;8.242;2023-04-06T05:35:39;2.90;91.10
8261;DHT22;64115;50.170;8.242;2023-04-06T05:38:08;3.00;91.00
8261;DHT22;64115;50.170;8.242;2023-04-06T05:40:37;3.00;90.90
8261;DHT22;64115;50.170;8.242;2023-04-06T05:43:06;3.10;90.50
8261;DHT22;64115;50.170;8.242;2023-04-06T05:45:33;3.30;90.70
8261;DHT22;64115;50.170;8.242;2023-04-06T05:48:01;3.40;90.40
8261;DHT22;64115;50.170;8.242;2023-04-06T05:50:28;3.50;90.50
8261;DHT22;64115;50.170;8.242;2023-04-06T05:52:55;3.60;90.50
8261;DHT22;64115;50.170;8.242;2023-04-06T05:55:22;3.60;90.30
8261;DHT22;64115;50.170;8.242;2023-04-06T05:57:51;3.60;90.50
8261;DHT22;64115;50.170;8.242;2023-04-06T06:00:18;3.70;90.80
8261;DHT22;64115;50.170;8.242;2023-04-06T06:02:45;3.80;90.70
8261;DHT22;64115;50.170;8.242;2023-04-06T06:05:12;3.90;90.60
8261;DHT22;64115;50.170;8.242;2023-04-06T06:07:39;3.90;90.60
8261;DHT22;64115;50.170;8.242;2023-04-06T06:10:07;4.00;90.30
8261;DHT22;64115;50.170;8.242;2023-04-06T06:12:35;4.20;90.10
8261;DHT22;64115;50.170;8.242;2023-04-06T06:15:04;4.30;90.70
8261;DHT22;64115;50.170;8.242;2023-04-06T06:17:31;4.30;91.00
8261;DHT22;64115;50.170;8.242;2023-04-06T06:19:58;4.30;90.80
8261;DHT22;64115;50.170;8.242;2023-04-06T06:22:26;4.40;90.70
8261;DHT22;64115;50.170;8.242;2023-04-06T06:24:53;4.40;90.70
8261;DHT22;64115;50.170;8.242;2023-04-06T06:27:20;4.40;91.10
8261;DHT22;64115;50.170;8.242;2023-04-06T06:29:47;4.50;90.60
8261;DHT22;64115;50.170;8.242;2023-04-06T06:32:16;4.50;90.90
8261;DHT22;64115;50.170;8.242;2023-04-06T06:34:43;4.60;90.80
8261;DHT22;64115;50.170;8.242;2023-04-06T06:37:10;4.70;90.40
8261;DHT22;64115;50.170;8.242;2023-04-06T06:39:37;4.70;91.20
8261;DHT22;64115;50.170;8.242;2023-04-06T06:42:05;4.70;90.80
8261;DHT22;64115;50.170;8.242;2023-04-06T06:44:33;4.80;91.30
8261;DHT22;64115;50.170;8.242;2023-04-06T06:47:00;4.90;90.40
8261;DHT22;64115;50.170;8.242;2023-04-06T06:49:29;5.10;90.60
8261;DHT22;64115;50.170;8.242;2023-04-06T06:51:56;5.10;90.40
8261;DHT22;64115;50.170;8.242;2023-04-06T06:54:23;5.10;90.80
8261;DHT22;64115;50.170;8.242;2023-04-06T06:56:50;5.20;90.90
8261;DHT22;64115;50.170;8.242;2023-04-06T06:59:18;5.30;90.60
8261;DHT22;64115;50.170;8.242;2023-04-06T07:01:46;5.30;90.90
8261;DHT22;64115;50.170;8.242;2023-04-06T07:04:13;5.40;90.60
8261;DHT22;64115;50.170;8.242;2023-04-06T07:06:42;5.60;90.80
8261;DHT22;64115;50.170;8.242;2023-04-06T07:09:09;5.70;90.80
8261;DHT22;64115;50.170;8.242;2023-04-06T07:11:36;5.70;90.80
8261;DHT22;64115;50.170;8.242;2023-04-06T07:14:03;5.70;90.40
8261;DHT22;64115;50.170;8.242;2023-04-06T07:16:30;5.80;90.40
8261;DHT22;64115;50.170;8.242;2023-04-06T07:18:57;5.90;90.70
8261;DHT22;64115;50.170;8.242;2023-04-06T07:21:25;5.90;91.10
8261;DHT22;64115;50.170;8.242;2023-04-06T07:23:54;5.90;90.90
8261;DHT22;64115;50.170;8.242;2023-04-06T07:26:21;5.90;91.20
8261;DHT22;64115;50.170;8.242;2023-04-06T07:28:49;6.00;91.20
8261;DHT22;64115;50.170;8.242;2023-04-06T07:31:16;6.10;91.20
8261;DHT22;64115;50.170;8.242;2023-04-06T07:33:43;6.20;91.30
8261;DHT22;64115;50.170;8.242;2023-04-06T07:36:11;6.30;91.20
8261;DHT22;64115;50.170;8.242;2023-04-06T07:38:38;6.40;91.40
8261;DHT22;64115;50.170;8.242;2023-04-06T07:41:07;6.60;91.80
8261;DHT22;64115;50.170;8.242;2023-04-06T07:43:34;6.80;91.50
8261;DHT22;64115;50.170;8.242;2023-04-06T07:46:01;6.80;91.20
8261;DHT22;64115;50.170;8.242;2023-04-06T07:48:30;6.90;91.20
8261;DHT22;64115;50.170;8.242;2023-04-06T07:51:03;6.80;91.00
8261;DHT22;64115;50.170;8.242;2023-04-06T07:53:32;6.70;90.80
8261;DHT22;64115;50.170;8.242;2023-04-06T07:55:59;6.70;91.30
8261;DHT22;64115;50.170;8.242;2023-04-06T07:58:28;6.90;91.60
8261;DHT22;64115;50.170;8.242;2023-04-06T08:00:55;7.00;91.60
8261;DHT22;64115;50.170;8.242;2023-04-06T08:03:23;7.10;91.40
8261;DHT22;64115;50.170;8.242;2023-04-06T08:05:51;7.00;90.60
8261;DHT22;64115;50.170;8.242;2023-04-06T08:08:19;7.00;91.60
8261;DHT22;64115;50.170;8.242;2023-04-06T08:10:48;7.10;91.60
8261;DHT22;64115;50.170;8.242;2023-04-06T08:13:15;7.20;91.20
8261;DHT22;64115;50.170;8.242;2023-04-06T08:15:44;7.30;91.40
8261;DHT22;64115;50.170;8.242;2023-04-06T08:18:12;7.40;91.60
8261;DHT22;64115;50.170;8.242;2023-04-06T08:20:39;7.50;91.00
8261;DHT22;64115;50.170;8.242;2023-04-06T08:23:07;7.70;91.50
8261;DHT22;64115;50.170;8.242;2023-04-06T08:25:35;7.90;91.10
8261;DHT22;64115;50.170;8.242;2023-04-06T08:28:03;7.90;91.70
8261;DHT22;64115;50.170;8.242;2023-04-06T08:30:30;7.80;91.50
8261;DHT22;64115;50.170;8.242;2023-04-06T08:32:59;8.10;91.40
8261;DHT22;64115;50.170;8.242;2023-04-06T08:35:26;8.10;91.20
8261;DHT22;64115;50.170;8.242;2023-04-06T08:37:54;7.90;90.80
8261;DHT22;64115;50.170;8.242;2023-04-06T08:40:21;8.00;91.30
8261;DHT22;64115;50.170;8.242;2023-04-06T08:42:52;8.10;91.90
8261;DHT22;64115;50.170;8.242;2023-04-06T08:45:21;8.00;91.50
8261;DHT22;64115;50.170;8.242;2023-04-06T08:47:49;8.10;91.90
8261;DHT22;64115;50.170;8.242;2023-04-06T08:50:19;8.20;91.60
8261;DHT22;64115;50.170;8.242;2023-04-06T08:52:48;8.40;92.10
8261;DHT22;64115;50.170;8.242;2023-04-06T08:55:16;8.60;91.80
8261;DHT22;64115;50.170;8.242;2023-04-06T08:57:43;8.70;91.40
8261;DHT22;64115;50.170;8.242;2023-04-06T09:00:13;8.70;91.20
8261;DHT22;64115;50.170;8.242;2023-04-06T09:02:43;8.70;91.40
8261;DHT22;64115;50.170;8.242;2023-04-06T09:05:11;8.60;91.60
8261;DHT22;64115;50.170;8.242;2023-04-06T09:07:40;8.80;92.80
8261;DHT22;64115;50.170;8.242;2023-04-06T09:10:08;9.00;91.80
8261;DHT22;64115;50.170;8.242;2023-04-06T09:12:35;9.10;92.00
8261;DHT22;64115;50.170;8.242;2023-04-06T09:15:03;9.40;91.90
8261;DHT22;64115;50.170;8.242;2023-04-06T09:17:32;9.40;92.50
8261;DHT22;64115;50.170;8.242;2023-04-06T09:20:01;9.20;91.50
8261;DHT22;64115;50.170;8.242;2023-04-06T09:22:35;9.30;93.00
8261;DHT22;64115;50.170;8.242;2023-04-06T09:25:05;9.50;91.90
8261;DHT22;64115;50.170;8.242;2023-04-06T09:27:35;9.60;91.70
8261;DHT22;64115;50.170;8.242;2023-04-06T09:30:05;9.80;91.40
8261;DHT22;64115;50.170;8.242;2023-04-06T09:32:32;9.80;91.10
8261;DHT22;64115;50.170;8.242;2023-04-06T09:35:06;9.90;91.40
8261;DHT22;64115;50.170;8.242;2023-04-06T09:37:34;9.90;92.90
8261;DHT22;64115;50.170;8.242;2023-04-06T09:40:08;9.80;91.00
8261;DHT22;64115;50.170;8.242;2023-04-06T09:42:35;10.00;90.40
8261;DHT22;64115;50.170;8.242;2023-04-06T09:45:03;9.90;90.70
8261;DHT22;64115;50.170;8.242;2023-04-06T09:47:30;9.80;91.50
8261;DHT22;64115;50.170;8.242;2023-04-06T09:49:59;9.90;91.30
8261;DHT22;64115;50.170;8.242;2023-04-06T09:52:30;10.00;91.40
8261;DHT22;64115;50.170;8.242;2023-04-06T09:55:01;9.80;90.90
8261;DHT22;64115;50.170;8.242;2023-04-06T09:57:34;9.90;91.00
8261;DHT22;64115;50.170;8.242;2023-04-06T10:00:04;9.80;91.00
8261;DHT22;64115;50.170;8.242;2023-04-06T10:02:41;9.80;91.10
8261;DHT22;64115;50.170;8.242;2023-04-06T10:05:19;9.70;91.50
8261;DHT22;64115;50.170;8.242;2023-04-06T10:07:48;9.90;92.10
8261;DHT22;64115;50.170;8.242;2023-04-06T10:10:17;10.00;91.50
8261;DHT22;64115;50.170;8.242;2023-04-06T10:12:47;10.20;91.90
8261;DHT22;64115;50.170;8.242;2023-04-06T10:15:15;10.50;92.20
8261;DHT22;64115;50.170;8.242;2023-04-06T10:17:43;10.80;91.70
8261;DHT22;64115;50.170;8.242;2023-04-06T10:20:14;10.70;90.60
8261;DHT22;64115;50.170;8.242;2023-04-06T10:22:45;10.70;91.00
8261;DHT22;64115;50.170;8.242;2023-04-06T10:25:26;10.70;90.80
8261;DHT22;64115;50.170;8.242;2023-04-06T10:28:01;10.70;90.60
8261;DHT22;64115;50.170;8.242;2023-04-06T10:30:28;10.70;90.30
8261;DHT22;64115;50.170;8.242;2023-04-06T10:32:56;10.60;90.80
8261;DHT22;64115;50.170;8.242;2023-04-06T10:35:24;10.50;90.90
8261;DHT22;64115;50.170;8.242;2023-04-06T10:38:04;10.50;90.50
8261;DHT22;64115;50.170;8.242;2023-04-06T10:40:35;10.60;91.20
8261;DHT22;64115;50.170;8.242;2023-04-06T10:43:11;10.70;90.60
8261;DHT22;64115;50.170;8.242;2023-04-06T10:45:40;10.80;91.20
8261;DHT22;64115;50.170;8.242;2023-04-06T10:48:15;10.70;90.70
8261;DHT22;64115;50.170;8.242;2023-04-06T10:50:44;10.70;90.30
8261;DHT22;64115;50.170;8.242;2023-04-06T10:53:19;10.70;91.10
8261;DHT22;64115;50.170;8.242;2023-04-06T10:55:47;11.00;90.00
8261;DHT22;64115;50.170;8.242;2023-04-06T10:58:17;11.00;89.80
8261;DHT22;64115;50.170;8.242;2023-04-06T11:00:45;10.80;90.20
8261;DHT22;64115;50.170;8.242;2023-04-06T11:03:12;10.90;90.60
8261;DHT22;64115;50.170;8.242;2023-04-06T11:05:43;11.00;90.40
8261;DHT22;64115;50.170;8.242;2023-04-06T11:08:22;11.00;90.00
8261;DHT22;64115;50.170;8.242;2023-04-06T11:10:49;11.10;90.10
8261;DHT22;64115;50.170;8.242;2023-04-06T11:13:18;11.20;90.90
8261;DHT22;64115;50.170;8.242;2023-04-06T11:15:45;11.20;90.10
8261;DHT22;64115;50.170;8.242;2023-04-06T11:18:17;11.20;90.30
8261;DHT22;64115;50.170;8.242;2023-04-06T11:20:47;11.30;90.50
8261;DHT22;64115;50.170;8.242;2023-04-06T11:23:22;11.40;90.70
8261;DHT22;64115;50.170;8.242;2023-04-06T11:25:51;11.50;91.30
8261;DHT22;64115;50.170;8.242;2023-04-06T11:28:20;11.60;91.00
8261;DHT22;64115;50.170;8.242;2023-04-06T11:30:47;11.60;90.40
8261;DHT22;64115;50.170;8.242;2023-04-06T11:33:20;11.40;90.40
8261;DHT22;64115;50.170;8.242;2023-04-06T11:35:48;11.50;90.30
8261;DHT22;64115;50.170;8.242;2023-04-06T11:38:18;11.40;90.30
8261;DHT22;64115;50.170;8.242;2023-04-06T11:40:45;11.60;90.20
8261;DHT22;64115;50.170;8.242;2023-04-06T11:43:12;11.70;89.70
8261;DHT22;64115;50.170;8.242;2023-04-06T11:45:43;11.50;90.50
8261;DHT22;64115;50.170;8.242;2023-04-06T11:48:18;11.20;89.40
8261;DHT22;64115;50.170;8.242;2023-04-06T11:50:47;11.20;90.80
8261;DHT22;64115;50.170;8.242;2023-04-06T11:53:15;11.50;90.60
8261;DHT22;64115;50.170;8.242;2023-04-06T11:55:42;11.60;90.70
8261;DHT22;64115;50.170;8.242;2023-04-06T11:58:12;11.80;90.50
8261;DHT22;64115;50.170;8.242;2023-04-06T12:00:39;11.80;88.40
8261;DHT22;64115;50.170;8.242;2023-04-06T12:03:12;11.70;90.40
8261;DHT22;64115;50.170;8.242;2023-04-06T12:05:39;11.80;90.50
8261;DHT22;64115;50.170;8.242;2023-04-06T12:08:07;12.00;90.40
8261;DHT22;64115;50.170;8.242;2023-04-06T12:10:34;12.00;90.10
8261;DHT22;64115;50.170;8.242;2023-04-06T12:13:01;11.80;89.70
8261;DHT22;64115;50.170;8.242;2023-04-06T12:15:28;11.80;91.10
8261;DHT22;64115;50.170;8.242;2023-04-06T12:17:55;11.90;90.90
8261;DHT22;64115;50.170;8.242;2023-04-06T12:20:24;12.00;90.00
8261;DHT22;64115;50.170;8.242;2023-04-06T12:22:51;12.10;90.10
8261;DHT22;64115;50.170;8.242;2023-04-06T12:25:19;12.00;89.50
8261;DHT22;64115;50.170;8.242;2023-04-06T12:27:46;12.10;90.80
8261;DHT22;64115;50.170;8.242;2023-04-06T12:30:13;12.20;91.70
8261;DHT22;64115;50.170;8.242;2023-04-06T12:32:40;12.20;88.60
8261;DHT22;64115;50.170;8.242;2023-04-06T12:35:08;12.20;90.40
8261;DHT22;64115;50.170;8.242;2023-04-06T12:37:38;12.10;90.40
8261;DHT22;64115;50.170;8.242;2023-04-06T12:40:06;12.40;90.50
8261;DHT22;64115;50.170;8.242;2023-04-06T12:42:36;12.60;90.30
8261;DHT22;64115;50.170;8.242;2023-04-06T12:45:03;12.60;89.60
8261;DHT22;64115;50.170;8.242;2023-04-06T12:47:31;12.40;89.20
8261;DHT22;64115;50.170;8.242;2023-04-06T12:49:58;12.30;90.40
8261;DHT22;64115;50.170;8.242;2023-04-06T12:52:25;12.50;88.30
8261;DHT22;64115;50.170;8.242;2023-04-06T12:54:57;12.50;88.20
8261;DHT22;64115;50.170;8.242;2023-04-06T12:57:25;12.70;86.10
8261;DHT22;64115;50.170;8.242;2023-04-06T12:59:53;12.70;84.50
8261;DHT22;64115;50.170;8.242;2023-04-06T13:02:20;12.60;85.70
8261;DHT22;64115;50.170;8.242;2023-04-06T13:04:48;12.60;90.50
8261;DHT22;64115;50.170;8.242;2023-04-06T13:07:15;13.00;90.00
8261;DHT22;64115;50.170;8.242;2023-04-06T13:09:43;13.30;89.50
8261;DHT22;64115;50.170;8.242;2023-04-06T13:12:14;13.30;86.80
8261;DHT22;64115;50.170;8.242;2023-04-06T13:14:41;13.30;86.80
8261;DHT22;64115;50.170;8.242;2023-04-06T13:17:09;13.10;87.10
8261;DHT22;64115;50.170;8.242;2023-04-06T13:19:36;13.20;85.80
8261;DHT22;64115;50.170;8.242;2023-04-06T13:22:03;13.10;89.20
8261;DHT22;64115;50.170;8.242;2023-04-06T13:24:30;12.80;86.00
8261;DHT22;64115;50.170;8.242;2023-04-06T13:26:58;12.80;88.40
8261;DHT22;64115;50.170;8.242;2023-04-06T13:29:27;12.70;86.90
8261;DHT22;64115;50.170;8.242;2023-04-06T13:31:54;12.40;84.10
8261;DHT22;64115;50.170;8.242;2023-04-06T13:34:21;12.10;87.80
8261;DHT22;64115;50.170;8.242;2023-04-06T13:36:48;11.90;87.10
8261;DHT22;64115;50.170;8.242;2023-04-06T13:39:15;11.90;86.90
8261;DHT22;64115;50.170;8.242;2023-04-06T13:41:42;11.80;86.60
8261;DHT22;64115;50.170;8.242;2023-04-06T13:44:09;12.10;88.10
8261;DHT22;64115;50.170;8.242;2023-04-06T13:46:38;12.40;87.10
8261;DHT22;64115;50.170;8.242;2023-04-06T13:49:05;12.50;87.10
8261;DHT22;64115;50.170;8.242;2023-04-06T13:51:32;12.30;88.90
8261;DHT22;64115;50.170;8.242;2023-04-06T13:54:00;12.30;87.40
8261;DHT22;64115;50.170;8.242;2023-04-06T13:56:27;12.30;86.10
8261;DHT22;64115;50.170;8.242;2023-04-06T13:58:54;12.10;85.90
8261;DHT22;64115;50.170;8.242;2023-04-06T14:01:22;12.10;86.30
8261;DHT22;64115;50.170;8.242;2023-04-06T14:03:50;12.30;86.10
8261;DHT22;64115;50.170;8.242;2023-04-06T14:06:17;12.10;85.30
8261;DHT22;64115;50.170;8.242;2023-04-06T14:08:44;11.90;85.70
8261;DHT22;64115;50.170;8.242;2023-04-06T14:11:12;11.80;85.30
8261;DHT22;64115;50.170;8.242;2023-04-06T14:13:50;11.70;87.00
8261;DHT22;64115;50.170;8.242;2023-04-06T14:16:16;11.60;84.70
8261;DHT22;64115;50.170;8.242;2023-04-06T14:18:45;11.50;86.90
8261;DHT22;64115;50.170;8.242;2023-04-06T14:21:16;11.50;85.60
8261;DHT22;64115;50.170;8.242;2023-04-06T14:23:44;11.50;86.50
8261;DHT22;64115;50.170;8.242;2023-04-06T14:26:11;11.60;85.80
8261;DHT22;64115;50.170;8.242;2023-04-06T14:28:38;11.70;84.20
8261;DHT22;64115;50.170;8.242;2023-04-06T14:31:10;11.50;84.30
8261;DHT22;64115;50.170;8.242;2023-04-06T14:33:38;11.40;85.00
8261;DHT22;64115;50.170;8.242;2023-04-06T14:36:06;11.60;86.60
8261;DHT22;64115;50.170;8.242;2023-04-06T14:38:35;11.70;86.60
8261;DHT22;64115;50.170;8.242;2023-04-06T14:41:02;11.90;86.60
8261;DHT22;64115;50.170;8.242;2023-04-06T14:43:29;11.90;84.60
8261;DHT22;64115;50.170;8.242;2023-04-06T14:46:00;11.80;83.80
8261;DHT22;64115;50.170;8.242;2023-04-06T14:48:27;11.80;84.40
8261;DHT22;64115;50.170;8.242;2023-04-06T14:50:55;11.70;83.00
8261;DHT22;64115;50.170;8.242;2023-04-06T14:53:22;11.40;81.80
8261;DHT22;64115;50.170;8.242;2023-04-06T14:55:51;11.30;82.70
8261;DHT22;64115;50.170;8.242;2023-04-06T14:58:18;11.30;85.20
8261;DHT22;64115;50.170;8.242;2023-04-06T15:00:46;11.40;86.50
8261;DHT22;64115;50.170;8.242;2023-04-06T15:03:13;11.30;83.80
8261;DHT22;64115;50.170;8.242;2023-04-06T15:05:41;11.20;86.40
8261;DHT22;64115;50.170;8.242;2023-04-06T15:08:08;11.00;84.70
8261;DHT22;64115;50.170;8.242;2023-04-06T15:10:37;10.80;85.60
8261;DHT22;64115;50.170;8.242;2023-04-06T15:13:05;10.70;88.20
8261;DHT22;64115;50.170;8.242;2023-04-06T15:15:32;10.80;86.40
8261;DHT22;64115;50.170;8.242;2023-04-06T15:21:32;10.60;86.60
8261;DHT22;64115;50.170;8.242;2023-04-06T15:27:54;10.50;88.50
8261;DHT22;64115;50.170;8.242;2023-04-06T15:30:23;10.50;88.60
8261;DHT22;64115;50.170;8.242;2023-04-06T15:32:54;10.60;89.70
8261;DHT22;64115;50.170;8.242;2023-04-06T15:35:22;10.60;89.40
8261;DHT22;64115;50.170;8.242;2023-04-06T15:37:49;10.60;88.80
8261;DHT22;64115;50.170;8.242;2023-04-06T15:40:16;10.70;89.40
8261;DHT22;64115;50.170;8.242;2023-04-06T15:42:43;10.70;90.00
8261;DHT22;64115;50.170;8.242;2023-04-06T15:45:27;10.70;90.00
8261;DHT22;64115;50.170;8.242;2023-04-06T15:48:16;10.70;89.40
8261;DHT22;64115;50.170;8.242;2023-04-06T15:50:43;10.60;88.60
8261;DHT22;64115;50.170;8.242;2023-04-06T15:53:11;10.40;90.00
8261;DHT22;64115;50.170;8.242;2023-04-06T15:55:38;10.30;89.00
8261;DHT22;64115;50.170;8.242;2023-04-06T15:58:05;10.20;89.10
8261;DHT22;64115;50.170;8.242;2023-04-06T16:00:33;10.20;90.20
8261;DHT22;64115;50.170;8.242;2023-04-06T16:03:00;10.20;90.10
8261;DHT22;64115;50.170;8.242;2023-04-06T16:05:28;10.10;89.90
8261;DHT22;64115;50.170;8.242;2023-04-06T16:07:56;10.10;90.20